WetterOnline ( https://www.wetteronline.ch )

Wetter aktuell Lodz

Aktuelles Wetter: Lodz (190m)

6-stündlich | Neueste Meldungen
Ortszeit Temperatur Wetter
Fr, 22.11. 13:00 4.7° C bewölkt
Fr, 22.11. 7:00 4.6° C bedeckt
Fr, 22.11. 1:00 6.1° C bedeckt
Do, 21.11. 19:00 7.0° C bedeckt
Do, 21.11. 13:00 10.4° C bedeckt
Do, 21.11. 7:00 10.4° C bedeckt
Do, 21.11. 1:00 10.5° C bewölkt
Mi, 20.11. 19:00 9.7° C bedeckt
Ortszeit Temperatur Wetter
Fr, 22.11. 18:00 3.1° C bedeckt
Fr, 22.11. 17:30 3° C bedeckt
Fr, 22.11. 17:00 2.9° C wolkig
Fr, 22.11. 16:30 3° C leicht bewölkt
Fr, 22.11. 16:00 3.3° C wolkig
Fr, 22.11. 15:30 4° C leicht bewölkt
Fr, 22.11. 15:00 4.1° C wolkig
Fr, 22.11. 14:30 4° C leicht bewölkt
Ortszeit Relative Feuchte Sichtweite
Fr, 22.11. 13:00 86% 17 km
Fr, 22.11. 7:00 87% 19 km
Fr, 22.11. 1:00 88% 17 km
Do, 21.11. 19:00 90% 13 km
Do, 21.11. 13:00 84% 20 km
Do, 21.11. 7:00 84% 11 km
Do, 21.11. 1:00 85% 11 km
Mi, 20.11. 19:00 92% 5.0 km
Ortszeit Relative Feuchte Sichtweite
Fr, 22.11. 18:00 85% 12 km
Fr, 22.11. 17:30 87% >10 km
Fr, 22.11. 17:00 86% 15 km
Fr, 22.11. 16:30 87% >10 km
Fr, 22.11. 16:00 84% 16 km
Fr, 22.11. 15:30 87% >10 km
Fr, 22.11. 15:00 84% 17 km
Fr, 22.11. 14:30 87% >10 km
Ortszeit Niederschlagsmenge Niederschlagsart
Fr, 22.11. 13:00 0.1 l/m2 in 6 Std. Regen
Fr, 22.11. 7:00 0.0 l/m2 in 12 Std. -
Fr, 22.11. 1:00 0.0 l/m2 in 6 Std. -
Do, 21.11. 19:00 0.4 l/m2 in 12 Std. Schauer
Do, 21.11. 13:00 0.1 l/m2 in 6 Std. Schauer
Do, 21.11. 7:00 0.1 l/m2 in 12 Std. -
Do, 21.11. 1:00 0.0 l/m2 in 6 Std. -
Mi, 20.11. 19:00 0.0 l/m2 in 12 Std. -
Ortszeit Niederschlagsmenge Niederschlagsart
Fr, 22.11. 18:00 keine Meldung -
Fr, 22.11. 17:30 keine Meldung -
Fr, 22.11. 17:00 keine Meldung -
Fr, 22.11. 16:30 keine Meldung -
Fr, 22.11. 16:00 keine Meldung -
Fr, 22.11. 15:30 keine Meldung -
Fr, 22.11. 15:00 keine Meldung -
Fr, 22.11. 14:30 keine Meldung -
Ortszeit Stärke Spitze Richtung
km/h Bft. km/h Grad Sektor
Fr, 22.11. 13:00 18 3 36 110° O
Fr, 22.11. 7:00 18 3 40 100° O
Fr, 22.11. 1:00 18 3 40 100° O
Do, 21.11. 19:00 22 4 47 100° O
Do, 21.11. 13:00 22 4 47 100° O
Do, 21.11. 7:00 22 4 - 100° O
Do, 21.11. 1:00 18 3 - 90° O
Mi, 20.11. 19:00 22 4 - 90° O
Ortszeit Stärke Spitze Richtung
km/h Bft. km/h Grad Sektor
Fr, 22.11. 18:00 22 4 40 100° O
Fr, 22.11. 17:30 20 4 - 100° O
Fr, 22.11. 17:00 18 3 - 100° O
Fr, 22.11. 16:30 20 4 - 100° O
Fr, 22.11. 16:00 22 4 43 100° O
Fr, 22.11. 15:30 22 4 - 100° O
Fr, 22.11. 15:00 22 4 - 100° O
Fr, 22.11. 14:30 19 3 - 100° O
Ortszeit Untergrenze Bedeckung Gattung
total tief tief mittel hoch
Fr, 22.11. 13:00 390 m 7/8 7/8 Sc - -
Fr, 22.11. 7:00 300 m 8/8 7/8 Sc - -
Fr, 22.11. 1:00 270 m 8/8 8/8 St - -
Do, 21.11. 19:00 270 m 8/8 7/8 St - -
Do, 21.11. 13:00 420 m 8/8 7/8 Sc - -
Do, 21.11. 7:00 450 m 8/8 7/8 Sc - -
Do, 21.11. 1:00 - 7/8 7/8 Sc - -
Mi, 20.11. 19:00 240 m 8/8 8/8 St - -
Ortszeit Bedeckungsgrad in Achtel und Wolkenuntergrenze
Fr, 22.11. 18:00 8(330m)
Fr, 22.11. 17:30 8(330m)
Fr, 22.11. 17:00 1(360m)
Fr, 22.11. 16:30 1-2(360m)
Fr, 22.11. 16:00 1(360m)
Fr, 22.11. 15:30 1-2(360m)
Fr, 22.11. 15:00 1(360m)
Fr, 22.11. 14:30 1-2(360m)
Ortszeit Luftdruck NN (hPa) Tendenz (hPa in 3 Std.)
Fr, 22.11. 13:00 1019 - 0,6
Fr, 22.11. 7:00 1018 + 0,4
Fr, 22.11. 1:00 1017 + 0,2
Do, 21.11. 19:00 1016 + 0,6
Do, 21.11. 13:00 1015 - 0,9
Do, 21.11. 7:00 1016 + 0,1
Do, 21.11. 1:00 1017 - 0,7
Mi, 20.11. 19:00 1019 - 1,1
Ortszeit Luftdruck NN (hPa) Tendenz (hPa in 3 Std.)
Fr, 22.11. 18:00 1019 + 0,1
Fr, 22.11. 17:30 1017 keine Meldung
Fr, 22.11. 17:00 1019 + 0,4
Fr, 22.11. 16:30 1017 keine Meldung
Fr, 22.11. 16:00 1019 - 0,1
Fr, 22.11. 15:30 1017 keine Meldung
Fr, 22.11. 15:00 1019 - 0,2
Fr, 22.11. 14:30 1017 keine Meldung
Ortszeit Schneehöhe (cm)
Fr, 22.11. 13:00 -
Fr, 22.11. 7:00 -
Fr, 22.11. 1:00 -
Do, 21.11. 19:00 -
Do, 21.11. 13:00 -
Do, 21.11. 7:00 -
Do, 21.11. 1:00 -
Mi, 20.11. 19:00 -
Ortszeit Schneehöhe (cm)
Fr, 22.11. 18:00 -
Fr, 22.11. 17:30 -
Fr, 22.11. 17:00 -
Fr, 22.11. 16:30 -
Fr, 22.11. 16:00 -
Fr, 22.11. 15:30 -
Fr, 22.11. 15:00 -
Fr, 22.11. 14:30 -
Link zu dieser Seite / Seite empfehlen

Das Wetter in ...